createdAt,value
2023-11-09T00:01:51.276Z,100.00
2023-11-09T00:04:18.074Z,100.00
2023-11-09T00:06:44.856Z,100.00
2023-11-09T00:09:12.068Z,100.00
2023-11-09T00:11:38.706Z,100.00
2023-11-09T00:14:06.253Z,100.00
2023-11-09T00:16:33.026Z,100.00
2023-11-09T00:19:01.394Z,100.00
2023-11-09T00:21:28.169Z,100.00
2023-11-09T00:23:58.341Z,100.00
2023-11-09T00:26:25.759Z,100.00
2023-11-09T00:28:52.832Z,100.00
2023-11-09T00:31:21.055Z,100.00
2023-11-09T00:33:47.940Z,100.00
2023-11-09T00:36:14.774Z,100.00
2023-11-09T00:38:41.595Z,100.00
2023-11-09T00:41:08.423Z,99.38
2023-11-09T00:43:35.254Z,100.00
2023-11-09T00:46:03.002Z,99.64
2023-11-09T00:48:29.786Z,100.00
2023-11-09T00:50:56.663Z,100.00
2023-11-09T00:53:23.486Z,100.00
2023-11-09T00:55:50.242Z,99.74
2023-11-09T00:58:17.522Z,100.00
2023-11-09T01:00:44.116Z,100.00
2023-11-09T01:03:10.919Z,100.00
2023-11-09T01:05:37.711Z,100.00
2023-11-09T01:08:04.590Z,100.00
2023-11-09T01:10:31.392Z,98.37
2023-11-09T01:12:58.187Z,97.76
2023-11-09T01:15:25.065Z,99.87
2023-11-09T01:18:04.608Z,100.00
2023-11-09T01:20:33.584Z,100.00
2023-11-09T01:23:00.642Z,100.00
2023-11-09T01:25:27.466Z,100.00
2023-11-09T01:27:54.730Z,100.00
2023-11-09T01:30:21.782Z,100.00
2023-11-09T01:32:49.264Z,100.00
2023-11-09T01:35:16.118Z,100.00
2023-11-09T01:37:42.894Z,100.00
2023-11-09T01:40:11.069Z,100.00
2023-11-09T01:42:37.883Z,100.00
2023-11-09T01:45:06.623Z,100.00
2023-11-09T01:47:34.454Z,100.00
2023-11-09T01:50:03.288Z,100.00
2023-11-09T01:52:31.545Z,100.00
2023-11-09T01:54:58.742Z,100.00
2023-11-09T01:57:25.628Z,100.00
2023-11-09T01:59:54.230Z,100.00
2023-11-09T02:02:21.957Z,100.00
2023-11-09T02:04:49.074Z,100.00
2023-11-09T02:07:17.640Z,100.00
2023-11-09T02:09:45.800Z,100.00
2023-11-09T02:12:13.553Z,100.00
2023-11-09T02:14:40.348Z,100.00
2023-11-09T02:17:10.082Z,100.00
2023-11-09T02:19:37.088Z,100.00
2023-11-09T02:22:04.952Z,100.00
2023-11-09T02:24:32.203Z,100.00
2023-11-09T02:26:58.872Z,100.00
2023-11-09T02:29:26.451Z,100.00
2023-11-09T02:31:53.332Z,100.00
2023-11-09T02:34:25.236Z,100.00
2023-11-09T02:36:55.516Z,100.00
2023-11-09T02:39:22.968Z,100.00
2023-11-09T02:41:49.725Z,97.89
2023-11-09T02:44:16.483Z,98.98
2023-11-09T02:46:43.298Z,99.11
2023-11-09T02:49:10.073Z,98.51
2023-11-09T02:51:36.902Z,98.88
2023-11-09T02:54:03.771Z,98.74
2023-11-09T02:56:30.576Z,96.85
2023-11-09T02:58:57.409Z,99.26
2023-11-09T03:01:24.235Z,99.97
2023-11-09T03:03:54.369Z,99.02
2023-11-09T03:06:21.328Z,99.87
2023-11-09T03:08:48.981Z,97.61
2023-11-09T03:11:19.788Z,98.32
2023-11-09T03:13:47.696Z,98.85
2023-11-09T03:16:14.727Z,94.70
2023-11-09T03:18:42.531Z,97.31
2023-11-09T03:21:12.479Z,98.69
2023-11-09T03:23:39.258Z,96.93
2023-11-09T03:26:08.796Z,97.44
2023-11-09T03:28:39.100Z,97.59
2023-11-09T03:31:08.065Z,95.59
2023-11-09T03:33:34.898Z,96.45
2023-11-09T03:36:01.671Z,98.39
2023-11-09T03:38:28.531Z,100.00
2023-11-09T03:40:55.611Z,100.00
2023-11-09T03:43:22.574Z,100.00
2023-11-09T03:45:49.360Z,100.00
2023-11-09T03:48:16.337Z,100.00
2023-11-09T03:50:44.170Z,100.00
2023-11-09T03:53:11.500Z,100.00
2023-11-09T03:55:38.314Z,100.00
2023-11-09T03:58:05.291Z,100.00
2023-11-09T04:00:32.245Z,100.00
2023-11-09T04:02:59.086Z,100.00
2023-11-09T04:05:25.875Z,100.00
2023-11-09T04:07:52.695Z,100.00
2023-11-09T04:10:19.471Z,100.00
2023-11-09T04:12:46.409Z,100.00
2023-11-09T04:15:13.322Z,100.00
2023-11-09T04:17:40.267Z,100.00
2023-11-09T04:20:08.577Z,100.00
2023-11-09T04:22:36.066Z,100.00
2023-11-09T04:25:03.380Z,100.00
2023-11-09T04:27:30.534Z,100.00
2023-11-09T04:29:59.353Z,100.00
2023-11-09T04:32:27.171Z,100.00
2023-11-09T04:34:54.494Z,100.00
2023-11-09T04:37:23.140Z,100.00
2023-11-09T04:39:53.133Z,100.00
2023-11-09T04:42:20.929Z,100.00
2023-11-09T04:44:47.973Z,100.00
2023-11-09T04:47:15.376Z,100.00
2023-11-09T04:49:47.303Z,100.00
2023-11-09T04:52:16.412Z,100.00
2023-11-09T04:54:47.205Z,100.00
2023-11-09T04:57:33.520Z,100.00
2023-11-09T05:00:00.376Z,100.00
2023-11-09T05:02:46.365Z,100.00
2023-11-09T05:05:31.924Z,100.00
2023-11-09T05:07:58.715Z,100.00
2023-11-09T05:10:25.924Z,100.00
2023-11-09T05:12:52.555Z,100.00
2023-11-09T05:15:19.862Z,100.00
2023-11-09T05:17:46.889Z,100.00
2023-11-09T05:20:14.726Z,100.00
2023-11-09T05:22:41.614Z,100.00
2023-11-09T05:25:11.691Z,100.00
2023-11-09T05:27:38.518Z,100.00
2023-11-09T05:30:06.131Z,100.00
2023-11-09T05:32:32.933Z,100.00
2023-11-09T05:35:03.304Z,100.00
2023-11-09T05:37:30.316Z,100.00
2023-11-09T05:39:57.103Z,100.00
2023-11-09T05:42:24.038Z,100.00
2023-11-09T05:44:50.834Z,100.00
2023-11-09T05:47:17.577Z,100.00
2023-11-09T05:49:44.390Z,100.00
2023-11-09T05:52:11.203Z,100.00
2023-11-09T05:54:37.978Z,100.00
2023-11-09T05:57:05.711Z,100.00
2023-11-09T05:59:37.143Z,100.00
2023-11-09T06:02:06.012Z,100.00
2023-11-09T06:04:34.036Z,100.00
2023-11-09T06:07:01.700Z,100.00
2023-11-09T06:09:30.222Z,100.00
2023-11-09T06:11:58.052Z,100.00
2023-11-09T06:14:24.883Z,100.00
2023-11-09T06:16:52.197Z,100.00
2023-11-09T06:19:19.079Z,100.00
2023-11-09T06:21:45.867Z,100.00
2023-11-09T06:24:13.091Z,100.00
2023-11-09T06:26:45.250Z,100.00
2023-11-09T06:29:18.037Z,100.00
2023-11-09T06:31:46.373Z,100.00
2023-11-09T06:34:20.045Z,100.00
2023-11-09T06:36:49.162Z,100.00
2023-11-09T06:39:18.074Z,100.00
2023-11-09T06:41:46.536Z,100.00
2023-11-09T06:44:13.939Z,100.00
2023-11-09T06:46:40.933Z,100.00
2023-11-09T06:49:07.949Z,100.00
2023-11-09T06:51:35.545Z,100.00
2023-11-09T06:54:03.504Z,100.00
2023-11-09T06:56:35.653Z,100.00
2023-11-09T06:59:04.484Z,100.00
2023-11-09T07:01:36.328Z,100.00
2023-11-09T07:04:03.459Z,100.00
2023-11-09T07:06:30.293Z,100.00
2023-11-09T07:08:57.066Z,100.00
2023-11-09T07:11:23.815Z,100.00
2023-11-09T07:13:50.971Z,100.00
2023-11-09T07:16:17.961Z,100.00
2023-11-09T07:18:46.568Z,100.00
2023-11-09T07:21:13.395Z,100.00
2023-11-09T07:23:40.290Z,100.00
2023-11-09T07:26:07.317Z,100.00
2023-11-09T07:28:34.470Z,100.00
2023-11-09T07:31:02.543Z,100.00
2023-11-09T07:33:29.564Z,100.00
2023-11-09T07:35:57.748Z,100.00
2023-11-09T07:38:24.675Z,100.00
2023-11-09T07:40:51.449Z,100.00
2023-11-09T07:43:19.573Z,100.00
2023-11-09T07:45:47.037Z,100.00
2023-11-09T07:48:14.388Z,100.00
2023-11-09T07:50:44.650Z,100.00
2023-11-09T07:53:12.378Z,100.00
2023-11-09T07:55:39.246Z,100.00
2023-11-09T07:58:06.484Z,100.00
2023-11-09T08:00:35.218Z,100.00
2023-11-09T08:03:03.345Z,100.00
2023-11-09T08:05:30.925Z,100.00
2023-11-09T08:07:58.350Z,100.00
2023-11-09T08:10:25.682Z,100.00
2023-11-09T08:12:53.911Z,100.00
2023-11-09T08:15:21.030Z,100.00
2023-11-09T08:17:48.949Z,100.00
2023-11-09T08:20:17.133Z,100.00
2023-11-09T08:22:47.259Z,99.71
2023-11-09T08:25:16.471Z,99.29
2023-11-09T08:27:43.743Z,100.00
2023-11-09T08:30:11.430Z,100.00
2023-11-09T08:32:39.732Z,100.00
2023-11-09T08:35:11.510Z,95.67
2023-11-09T08:37:40.302Z,97.87
2023-11-09T08:40:17.970Z,91.98
2023-11-09T08:42:49.860Z,92.95
2023-11-09T08:45:22.739Z,89.27
2023-11-09T08:47:50.839Z,87.82
2023-11-09T08:50:18.064Z,87.16
2023-11-09T08:52:46.004Z,85.70
2023-11-09T08:55:14.513Z,86.20
2023-11-09T08:57:42.874Z,86.32
2023-11-09T09:00:14.673Z,86.47
2023-11-09T09:02:52.702Z,84.47
2023-11-09T09:05:22.843Z,83.33
2023-11-09T09:07:53.201Z,84.54
2023-11-09T09:10:24.752Z,83.28
2023-11-09T09:12:56.318Z,83.12
2023-11-09T09:15:24.296Z,81.04
2023-11-09T09:17:51.736Z,80.90
2023-11-09T09:20:22.270Z,80.65
2023-11-09T09:22:55.770Z,78.10
2023-11-09T09:25:24.230Z,78.92
2023-11-09T09:27:52.369Z,80.07
2023-11-09T09:30:22.577Z,79.80
2023-11-09T09:32:55.024Z,82.22
2023-11-09T09:35:26.342Z,81.38
2023-11-09T09:37:56.290Z,81.13
2023-11-09T09:40:33.069Z,82.33
2023-11-09T09:43:03.607Z,79.03
2023-11-09T09:45:34.447Z,81.53
2023-11-09T09:48:03.079Z,83.23
2023-11-09T09:50:40.455Z,83.30
2023-11-09T09:53:11.598Z,81.36
2023-11-09T09:55:39.139Z,79.54
2023-11-09T09:58:10.560Z,76.08
2023-11-09T10:00:40.506Z,76.92
2023-11-09T10:03:08.521Z,74.09
2023-11-09T10:05:37.795Z,71.67
2023-11-09T10:08:14.728Z,69.44
2023-11-09T10:10:51.081Z,67.79
2023-11-09T10:13:21.470Z,65.29
2023-11-09T10:15:56.633Z,60.38
2023-11-09T10:18:34.405Z,62.03
2023-11-09T10:21:02.502Z,61.35
2023-11-09T10:23:29.436Z,61.65
2023-11-09T10:25:58.332Z,62.16
2023-11-09T10:28:30.272Z,63.20
2023-11-09T10:30:57.438Z,60.85
2023-11-09T10:33:25.507Z,58.73
2023-11-09T10:35:54.090Z,59.13
2023-11-09T10:38:21.669Z,58.70
2023-11-09T10:41:14.146Z,56.66
2023-11-09T10:43:37.410Z,56.67
2023-11-09T10:46:09.990Z,54.74
2023-11-09T10:48:42.524Z,54.19
2023-11-09T10:51:11.163Z,54.43
2023-11-09T10:53:39.490Z,56.08
2023-11-09T10:56:11.924Z,54.78
2023-11-09T10:58:45.662Z,55.33
2023-11-09T11:01:23.335Z,56.68
2023-11-09T11:03:56.281Z,54.82
2023-11-09T11:06:43.034Z,57.32
2023-11-09T11:09:21.543Z,56.84
2023-11-09T11:11:51.054Z,56.72
2023-11-09T11:14:21.521Z,55.76
2023-11-09T11:17:10.005Z,54.37
2023-11-09T11:19:49.592Z,53.89
2023-11-09T11:22:32.685Z,55.07
2023-11-09T11:25:00.973Z,54.15
2023-11-09T11:27:34.223Z,51.22
2023-11-09T11:30:02.773Z,54.11
2023-11-09T11:32:39.949Z,46.38
2023-11-09T11:35:08.556Z,44.39
2023-11-09T11:37:38.464Z,43.88
2023-11-09T11:40:07.457Z,42.84
2023-11-09T11:42:36.266Z,42.14
2023-11-09T11:45:05.006Z,41.93
2023-11-09T11:47:32.881Z,43.49
2023-11-09T11:50:11.765Z,42.74
2023-11-09T11:52:39.498Z,42.64
2023-11-09T11:55:11.997Z,42.93
2023-11-09T11:58:06.160Z,41.82
2023-11-09T12:00:43.513Z,41.67
2023-11-09T12:03:12.729Z,42.97
2023-11-09T12:05:45.224Z,44.61
2023-11-09T12:08:16.839Z,43.52
2023-11-09T12:10:44.706Z,43.58
2023-11-09T12:13:12.834Z,43.98
2023-11-09T12:15:40.419Z,43.56
2023-11-09T12:18:10.217Z,43.28
2023-11-09T12:20:38.310Z,43.93
2023-11-09T12:23:11.611Z,44.42
2023-11-09T12:25:55.191Z,42.76
2023-11-09T12:28:26.128Z,42.99
2023-11-09T12:30:54.027Z,42.84
2023-11-09T12:33:22.018Z,43.17
2023-11-09T12:36:04.839Z,42.33
2023-11-09T12:38:36.427Z,42.14
2023-11-09T12:41:05.586Z,43.98
2023-11-09T12:43:38.499Z,43.16
2023-11-09T12:46:15.934Z,44.44
2023-11-09T12:48:53.557Z,43.97
2023-11-09T12:51:26.128Z,46.77
2023-11-09T12:53:54.068Z,47.18
2023-11-09T12:56:30.194Z,46.11
2023-11-09T12:59:04.608Z,46.04
2023-11-09T13:01:32.588Z,48.17
2023-11-09T13:04:00.241Z,46.03
2023-11-09T13:06:27.730Z,44.84
2023-11-09T13:09:06.205Z,43.05
2023-11-09T13:11:44.022Z,42.09
2023-11-09T13:14:17.711Z,42.29
2023-11-09T13:16:46.025Z,42.58
2023-11-09T13:19:27.485Z,42.76
2023-11-09T13:21:54.501Z,42.47
2023-11-09T13:24:30.427Z,43.43
2023-11-09T13:27:00.951Z,45.27
2023-11-09T13:29:27.789Z,43.69
2023-11-09T13:31:58.059Z,42.62
2023-11-09T13:34:37.630Z,43.24
2023-11-09T13:37:05.924Z,43.07
2023-11-09T13:39:52.128Z,42.81
2023-11-09T13:42:38.165Z,44.50
2023-11-09T13:45:19.483Z,45.82
2023-11-09T13:47:52.492Z,45.36
2023-11-09T13:50:19.277Z,47.01
2023-11-09T13:52:52.268Z,48.54
2023-11-09T13:55:37.586Z,46.87
2023-11-09T13:58:14.411Z,47.14
2023-11-09T14:00:41.061Z,47.21
2023-11-09T14:03:07.745Z,47.32
2023-11-09T14:05:34.428Z,48.39
2023-11-09T14:08:04.140Z,51.10
2023-11-09T14:10:30.830Z,49.82
2023-11-09T14:13:10.411Z,49.98
2023-11-09T14:15:50.378Z,53.63
2023-11-09T14:18:29.494Z,53.35
2023-11-09T14:21:09.031Z,52.72
2023-11-09T14:23:38.516Z,52.16
2023-11-09T14:26:06.061Z,52.42
2023-11-09T14:28:34.267Z,53.09
2023-11-09T14:31:06.491Z,52.97
2023-11-09T14:33:34.383Z,51.79
2023-11-09T14:36:01.080Z,51.70
2023-11-09T14:38:28.630Z,53.01
2023-11-09T14:40:58.103Z,51.01
2023-11-09T14:43:26.820Z,51.58
2023-11-09T14:45:53.933Z,51.31
2023-11-09T14:48:26.005Z,51.51
2023-11-09T14:50:55.037Z,49.96
2023-11-09T14:53:33.648Z,49.57
2023-11-09T14:56:04.284Z,50.29
2023-11-09T14:58:35.630Z,49.08
2023-11-09T15:01:04.439Z,49.59
2023-11-09T15:03:32.890Z,49.36
2023-11-09T15:06:09.965Z,51.72
2023-11-09T15:08:38.659Z,52.34
2023-11-09T15:11:15.405Z,50.66
2023-11-09T15:13:45.508Z,50.19
2023-11-09T15:16:17.524Z,51.82
2023-11-09T15:18:48.214Z,50.59
2023-11-09T15:21:16.942Z,50.71
2023-11-09T15:23:45.020Z,49.54
2023-11-09T15:26:11.762Z,51.55
2023-11-09T15:28:40.057Z,51.74
2023-11-09T15:31:07.162Z,53.60
2023-11-09T15:33:33.868Z,53.41
2023-11-09T15:36:00.602Z,53.46
2023-11-09T15:38:27.501Z,53.42
2023-11-09T15:41:17.258Z,52.90
2023-11-09T15:43:41.416Z,53.06
2023-11-09T15:46:12.221Z,51.79
2023-11-09T15:48:43.578Z,53.35
2023-11-09T15:51:10.608Z,54.97
2023-11-09T15:53:38.562Z,55.34
2023-11-09T15:56:06.621Z,56.70
2023-11-09T15:58:33.406Z,56.35
2023-11-09T16:01:02.464Z,57.28
2023-11-09T16:03:32.164Z,60.67
2023-11-09T16:05:59.013Z,60.76
2023-11-09T16:08:26.118Z,60.42
2023-11-09T16:10:54.318Z,65.31
2023-11-09T16:13:21.601Z,65.98
2023-11-09T16:15:48.395Z,67.00
2023-11-09T16:18:15.651Z,64.20
2023-11-09T16:20:43.859Z,63.17
2023-11-09T16:23:12.660Z,63.16
2023-11-09T16:25:44.951Z,63.45
2023-11-09T16:28:13.977Z,67.60
2023-11-09T16:30:41.464Z,69.35
2023-11-09T16:33:13.961Z,67.22
2023-11-09T16:35:44.120Z,76.51
2023-11-09T16:38:11.344Z,78.01
2023-11-09T16:40:40.762Z,75.97
2023-11-09T16:43:09.083Z,76.24
2023-11-09T16:45:35.941Z,72.72
2023-11-09T16:48:02.651Z,75.27
2023-11-09T16:50:29.348Z,75.69
2023-11-09T16:52:55.950Z,74.17
2023-11-09T16:55:23.057Z,79.39
2023-11-09T16:57:50.393Z,78.48
2023-11-09T17:00:19.523Z,78.57
2023-11-09T17:02:47.483Z,77.92
2023-11-09T17:05:14.630Z,78.80
2023-11-09T17:07:44.490Z,80.71
2023-11-09T17:10:12.629Z,81.04
2023-11-09T17:12:42.802Z,82.08
2023-11-09T17:15:14.490Z,81.84
2023-11-09T17:17:44.565Z,80.17
2023-11-09T17:20:13.105Z,80.50
2023-11-09T17:22:41.148Z,81.43
2023-11-09T17:25:09.384Z,80.31
2023-11-09T17:27:36.470Z,82.51
2023-11-09T17:30:09.603Z,83.93
2023-11-09T17:32:36.749Z,84.11
2023-11-09T17:35:04.099Z,83.51
2023-11-09T17:37:30.969Z,82.72
2023-11-09T17:39:58.698Z,81.09
2023-11-09T17:42:25.631Z,78.85
2023-11-09T17:44:52.391Z,78.71
2023-11-09T17:47:19.514Z,77.82
2023-11-09T17:49:49.769Z,76.19
2023-11-09T17:52:17.235Z,76.57
2023-11-09T17:54:44.534Z,75.20
2023-11-09T17:57:11.293Z,77.80
2023-11-09T17:59:38.361Z,75.75
2023-11-09T18:02:06.704Z,76.31
2023-11-09T18:04:33.651Z,75.32
2023-11-09T18:07:00.433Z,75.65
2023-11-09T18:09:27.191Z,74.76
2023-11-09T18:11:56.564Z,74.32
2023-11-09T18:14:24.719Z,86.39
2023-11-09T18:16:52.608Z,86.84
2023-11-09T18:19:19.334Z,84.83
2023-11-09T18:21:48.701Z,79.35
2023-11-09T18:24:15.747Z,80.04
2023-11-09T18:26:42.950Z,80.72
2023-11-09T18:29:09.531Z,81.58
2023-11-09T18:31:36.404Z,80.25
2023-11-09T18:34:03.356Z,79.37
2023-11-09T18:36:31.944Z,78.85
2023-11-09T18:38:59.983Z,79.02
2023-11-09T18:41:27.813Z,78.79
2023-11-09T18:43:56.281Z,79.21
2023-11-09T18:46:23.436Z,77.25
2023-11-09T18:48:50.195Z,77.17
2023-11-09T18:51:17.647Z,78.68
2023-11-09T18:53:44.954Z,78.84
2023-11-09T18:56:14.478Z,79.57
2023-11-09T18:58:41.049Z,78.10
2023-11-09T19:01:07.672Z,77.86
2023-11-09T19:06:04.006Z,80.85
2023-11-09T19:08:31.384Z,81.68
2023-11-09T19:10:58.742Z,84.91
2023-11-09T19:13:27.283Z,83.40
2023-11-09T19:15:53.923Z,82.61
2023-11-09T19:18:20.639Z,84.01
2023-11-09T19:23:25.535Z,87.23
2023-11-09T19:25:59.244Z,87.72
2023-11-09T19:28:28.605Z,87.87
2023-11-09T19:30:59.529Z,88.20
2023-11-09T19:33:26.346Z,86.51
2023-11-09T19:35:53.052Z,84.34
2023-11-09T19:38:19.620Z,83.71
2023-11-09T19:40:46.486Z,81.53
2023-11-09T19:43:14.008Z,79.63
2023-11-09T19:45:44.071Z,78.26
2023-11-09T19:48:11.489Z,77.13
2023-11-09T19:50:38.251Z,76.26
2023-11-09T19:53:04.882Z,74.40
2023-11-09T19:55:31.576Z,73.33
2023-11-09T19:57:58.485Z,72.93
2023-11-09T20:00:26.485Z,72.24
2023-11-09T20:02:53.221Z,72.63
2023-11-09T20:08:15.849Z,71.58
2023-11-09T20:10:42.483Z,71.38
2023-11-09T20:13:09.987Z,70.78
2023-11-09T20:15:36.945Z,70.19
2023-11-09T20:18:04.251Z,69.33
2023-11-09T20:23:29.645Z,68.00
2023-11-09T20:25:56.435Z,67.65
2023-11-09T20:28:23.278Z,68.05
2023-11-09T20:30:50.030Z,67.76
2023-11-09T20:33:17.068Z,67.44
2023-11-09T20:35:44.039Z,67.53
2023-11-09T20:38:12.959Z,67.53
2023-11-09T20:40:39.815Z,67.74
2023-11-09T20:43:06.568Z,68.05
2023-11-09T20:45:33.391Z,68.21
2023-11-09T20:48:00.485Z,67.95
2023-11-09T20:50:28.458Z,68.46
2023-11-09T20:52:55.350Z,68.54
2023-11-09T20:55:23.732Z,68.72
2023-11-09T20:57:51.447Z,70.49
2023-11-09T21:00:23.072Z,71.28
2023-11-09T21:02:53.918Z,71.11
2023-11-09T21:05:22.424Z,70.04
2023-11-09T21:07:49.733Z,69.99
2023-11-09T21:10:16.534Z,69.38
2023-11-09T21:12:43.413Z,69.09
2023-11-09T21:15:12.237Z,68.37
2023-11-09T21:17:42.552Z,68.01
2023-11-09T21:20:10.938Z,68.34
2023-11-09T21:22:40.311Z,69.34
2023-11-09T21:25:08.070Z,70.39
2023-11-09T21:27:35.498Z,70.29
2023-11-09T21:30:02.582Z,71.09
2023-11-09T21:32:29.705Z,71.23
2023-11-09T21:34:56.675Z,72.43
2023-11-09T21:37:24.265Z,71.63
2023-11-09T21:39:51.060Z,70.76
2023-11-09T21:42:19.698Z,70.04
2023-11-09T21:44:49.462Z,69.67
2023-11-09T21:47:19.565Z,69.53
2023-11-09T21:49:46.748Z,68.35
2023-11-09T21:52:13.352Z,68.73
2023-11-09T21:54:42.732Z,69.16
2023-11-09T21:57:10.879Z,69.51
2023-11-09T21:59:37.684Z,69.18
2023-11-09T22:02:04.914Z,68.43
2023-11-09T22:04:38.131Z,68.67
2023-11-09T22:07:05.183Z,68.93
2023-11-09T22:09:33.315Z,67.36
2023-11-09T22:12:00.371Z,67.35
2023-11-09T22:14:28.564Z,67.84
2023-11-09T22:16:55.497Z,67.83
2023-11-09T22:19:22.265Z,67.09
2023-11-09T22:21:50.802Z,66.70
2023-11-09T22:24:17.669Z,66.79
2023-11-09T22:26:48.164Z,65.94
2023-11-09T22:29:15.443Z,65.56
2023-11-09T22:31:42.243Z,65.44
2023-11-09T22:34:09.184Z,66.03
2023-11-09T22:36:36.173Z,65.52
2023-11-09T22:39:05.786Z,65.59
2023-11-09T22:41:33.008Z,66.27
2023-11-09T22:43:59.600Z,65.73
2023-11-09T22:46:26.510Z,66.21
2023-11-09T22:48:53.747Z,65.87
2023-11-09T22:51:20.621Z,66.03
2023-11-09T22:53:47.380Z,65.15
2023-11-09T22:56:14.459Z,64.64
2023-11-09T22:58:41.301Z,64.68
2023-11-09T23:01:08.082Z,64.94
2023-11-09T23:03:35.026Z,64.82
2023-11-09T23:06:01.945Z,66.61
2023-11-09T23:08:28.828Z,68.01
2023-11-09T23:10:55.687Z,67.54
2023-11-09T23:13:22.665Z,67.86
2023-11-09T23:15:49.614Z,68.66
2023-11-09T23:18:17.455Z,69.96
2023-11-09T23:20:44.917Z,69.86
2023-11-09T23:23:11.942Z,70.11
2023-11-09T23:25:38.696Z,70.31
2023-11-09T23:28:06.197Z,70.16
2023-11-09T23:30:33.208Z,70.08
2023-11-09T23:33:00.205Z,69.88
2023-11-09T23:35:29.664Z,70.63
2023-11-09T23:37:56.911Z,70.38
2023-11-09T23:40:23.648Z,70.69
2023-11-09T23:42:51.499Z,70.40
2023-11-09T23:45:19.159Z,70.23
2023-11-09T23:47:46.700Z,69.52
2023-11-09T23:50:13.897Z,68.99
2023-11-09T23:52:41.042Z,68.18
2023-11-09T23:55:08.428Z,67.35
2023-11-09T23:57:35.689Z,66.24
